CheckWX is a tool to help pilots better visualize weather data.  It is not intended as a substitute for an official pre-flight weather briefing.

01:31:07 UTC

EGPH METAR
Edinburgh Airport
Edinburgh, United Kingdom
Current

41 mins ago

EGPH 190050Z 24009KT 9999 SCT029 BKN044 13/12 Q1000
Observed
Aug-19 @ 00:50 UTC
Wind
  • 240° at 9 KTS
Visibility
10,000+ meters
Flight Rules
VFR
Cloud Levels
  • Scattered at 2,900' AGL
  • Broken at 4,400' AGL
Temperature
13°C / 55°F
Dewpoint
12°C / 54°F
Humidity
94%
Altimeter
29.53" Hg
Pressure
999.92 hPa
Previous

1 hour ago

EGPH 190020Z 26006KT CAVOK 13/12 Q1000
Observed
Aug-19 @ 00:20 UTC
Wind
  • 260° at 6 KTS
Visibility
10,000+ meters
Flight Rules
VFR
Cloud Levels
  • Clear skies
Temperature
13°C / 55°F
Dewpoint
12°C / 54°F
Humidity
94%
Altimeter
29.53" Hg
Pressure
999.92 hPa
Previous

2 hours ago

EGPH 182350Z 24008KT 9999 FEW017 13/11 Q0999
Observed
Aug-18 @ 23:50 UTC
Wind
  • 240° at 8 KTS
Visibility
10,000+ meters
Flight Rules
VFR
Cloud Levels
  • Few at 1,700' AGL
Temperature
13°C / 55°F
Dewpoint
11°C / 52°F
Humidity
88%
Altimeter
29.5" Hg
Pressure
998.92 hPa